Data for 06/02/2015

Time Sea-Level Adjusted Pressure Absolute Pressure Temperature Relative Humidity Dew Point   
(mb) (inHg) (mb) (inHg) (C) (F) (%) (C) (F)
00:05 1016 30 845 24.95 10 50 77 6.1 42.9
00:10 1016 30 845 24.95 10 49.9 76 6 42.8
00:15 1016 30 845 24.95 10 50 76 6.1 42.9
00:20 1016 30 845 24.95 9.9 49.8 77 6 42.9
00:25 1016 30 845 24.95 9.8 49.6 77 5.9 42.7
00:30 1016 30 845 24.95 9.6 49.3 77 5.9 42.5
00:35 1016 30 845 24.95 9.4 49 78 5.8 42.5
00:40 1016 30 845 24.95 9.5 49 78 5.8 42.4
00:45 1016 30 845 24.95 9.7 49.4 77 5.8 42.4
00:50 1016 30 845 24.95 9.6 49.3 77 5.7 42.3
00:55 1016 30 845 24.95 9.4 48.9 77 5.5 41.9
01:00 1016 30 845 24.95 9.4 48.9 76 5.4 41.7
01:05 1016 30 845 24.95 9.3 48.7 76 5.2 41.4
01:10 1016 30 845 24.95 9.4 48.8 75 5.2 41.3
01:15 1016 30 845 24.95 9.4 48.8 75 5.2 41.4
01:20 1016 30 845 24.95 9.2 48.5 75 5 41
01:25 1016 30 845 24.95 9 48.2 76 5 41
01:30 1016 30 845 24.95 8.9 48 76 4.9 40.8
01:35 1016 30 845 24.95 9 48.2 75 4.8 40.6
01:40 1016 30 845 24.95 9.2 48.5 74 4.9 40.8
01:45 1016 30 845 24.95 9.2 48.5 75 4.9 40.9
01:50 1016 30 845 24.95 9.1 48.4 73 4.6 40.2
01:55 1016 30 845 24.95 9 48.1 74 4.7 40.4
02:00 1015 29.97 845 24.95 8.9 48 74 4.6 40.3
02:05 1015 29.97 845 24.95 8.8 47.9 75 4.6 40.3
02:10 1015 29.97 845 24.95 8.7 47.7 76 4.8 40.6
02:15 1015 29.97 845 24.95 8.7 47.7 75 4.5 40.2
02:20 1015 29.97 845 24.95 8.7 47.7 75 4.6 40.3
02:25 1015 29.97 845 24.95 8.8 47.8 75 4.6 40.3
02:30 1015 29.97 845 24.95 8.6 47.6 76 4.6 40.3
02:35 1015 29.97 845 24.95 8.6 47.5 77 4.7 40.5
02:40 1015 29.97 845 24.95 8.6 47.5 76 4.7 40.4
02:45 1015 29.97 845 24.95 8.5 47.3 77 4.7 40.4
02:50 1016 30 845 24.95 8.4 47.1 76 4.5 40.1
02:55 1016 30 845 24.95 8.4 47.1 76 4.4 39.9
03:00 1016 30 845 24.95 8.3 46.9 76 4.4 39.8
03:05 1016 30 845 24.95 8.3 46.9 75 4.2 39.6
03:10 1016 30 845 24.95 8.3 46.9 75 4.2 39.6
03:15 1016 30 845 24.95 8.4 47.2 75 4.2 39.6
03:20 1016 30 845 24.95 8.6 47.5 73 4.1 39.3
03:25 1016 30 845 24.95 8.8 47.8 72 4 39.2
03:30 1016 30 845 24.95 8.8 47.8 72 4 39.2
03:35 1016 30 845 24.95 8.8 47.8 72 4 39.3
03:40 1016 30 845 24.95 8.6 47.5 73 4.1 39.4
03:45 1016 30 845 24.95 8.5 47.3 72 3.8 38.8
03:50 1016 30 845 24.95 8.4 47.1 71 3.4 38.2
03:55 1016 30 845 24.95 8.6 47.5 71 3.6 38.5
04:00 1016 30 845 24.95 8.3 47 73 3.8 38.9
04:05 1016 30 845 24.95 8.3 47 71 3.3 37.9
04:10 1016 30 845 24.95 8.6 47.4 70 3.4 38.2
04:15 1016 30 845 24.95 8.3 47 73 3.8 38.8
04:20 1016 30 845 24.95 8.1 46.5 73 3.6 38.5
04:25 1016 30 845 24.95 7.9 46.1 74 3.5 38.3
04:30 1016 30 845 24.95 7.5 45.6 75 3.5 38.3
04:35 1016 30 845 24.95 7.2 45 77 3.4 38.2
04:40 1016 30 845 24.95 7.2 44.9 77 3.3 38
04:45 1016 30 845 24.95 6.9 44.5 77 3.3 37.9
04:50 1016 30 845 24.95 6.7 44 79 3.4 38.1
04:55 1016 30 845 24.95 6.5 43.6 80 3.2 37.8
05:00 1016 30 845 24.95 6.6 43.9 77 2.9 37.3
05:05 1016 30 845 24.95 7.3 45.2 74 3 37.5
05:10 1016 30 845 24.95 7.6 45.6 75 3.4 38.1
05:15 1016 30 845 24.95 7.5 45.5 76 3.5 38.3
05:20 1016 30 845 24.95 7.5 45.4 77 3.7 38.7
05:25 1016 30 845 24.95 7.4 45.4 78 3.8 38.8
05:30 1015 29.97 845 24.95 7.5 45.6 78 4 39.2
05:35 1016 30 845 24.95 7.8 46 78 4.1 39.4
05:40 1016 30 845 24.95 8.1 46.6 74 3.8 38.8
05:45 1016 30 845 24.95 8.4 47.1 73 3.8 38.8
05:50 1016 30 845 24.95 8.6 47.6 71 3.7 38.7
05:55 1016 30 845 24.95 8.9 48 70 3.8 38.8
06:00 1016 30 845 24.95 9.2 48.6 69 3.8 38.9
06:05 1016 30 845 24.95 9.4 48.9 70 4.1 39.4
06:10 1016 30 845 24.95 9.6 49.3 69 4.2 39.6
06:15 1016 30 845 24.95 10.1 50.2 68 4.4 39.9
06:20 1016 30 845 24.95 10.3 50.5 67 4.5 40
06:25 1016 30 845 24.95 10.5 50.8 68 4.9 40.8
06:30 1016 30 845 24.95 10.7 51.2 68 5.1 41.2
06:35 1016 30 845 24.95 10.9 51.6 66 4.9 40.8
06:40 1016 30 845 24.95 10.9 51.7 66 4.9 40.8
06:45 1016 30 845 24.95 11.3 52.3 65 4.9 40.8
06:50 1016 30 845 24.95 11.6 52.9 65 5.3 41.6
06:55 1016 30 845 24.95 12.2 54 60 4.8 40.7
07:00 1016 30 845 24.95 13 55.4 59 5.2 41.3
07:05 1016 30 845 24.95 13.4 56 58 5.3 41.5
07:10 1016 30 845 24.95 13.1 55.6 60 5.5 41.9
07:15 1016 30 846 24.98 13.3 56 58 5.3 41.6
07:20 1016 30 846 24.98 13.2 55.7 58 5.1 41.1
07:25 1017 30.03 846 24.98 13.2 55.8 60 5.7 42.2
07:30 1017 30.03 846 24.98 13.8 56.8 59 6.1 43
07:35 1017 30.03 846 24.98 13.6 56.5 61 6.2 43.2
07:40 1017 30.03 846 24.98 14.3 57.7 57 6 42.9
07:45 1017 30.03 846 24.98 14.8 58.7 55 6.1 42.9
07:50 1017 30.03 846 24.98 14.4 58 58 6.4 43.6
07:55 1017 30.03 846 24.98 15.3 59.6 54 6 42.9
08:00 1017 30.03 846 24.98 15.8 60.5 52 6.2 43.2
08:05 1017 30.03 846 24.98 15.4 59.8 54 6.3 43.3
08:10 1017 30.03 846 24.98 15.5 59.9 55 6.7 44
08:15 1017 30.03 846 24.98 15.4 59.7 55 6.5 43.6
08:20 1017 30.03 846 24.98 15.1 59.1 55 6.2 43.2
08:25 1017 30.03 846 24.98 15.6 60 55 6.5 43.7
08:30 1017 30.03 846 24.98 15.9 60.5 53 6.4 43.5
08:35 1017 30.03 846 24.98 15.8 60.5 52 6 42.9
08:40 1017 30.03 846 24.98 15.7 60.2 57 7.3 45.1
08:45 1017 30.03 846 24.98 16 60.9 56 7.4 45.3
08:50 1017 30.03 846 24.98 16.7 62 55 7.8 46.1
08:55 1017 30.03 846 24.98 17.1 62.9 54 7.9 46.2
09:00 1017 30.03 846 24.98 17.5 63.4 50 7.2 44.9
09:05 1017 30.03 846 24.98 17.7 63.9 51 7.7 45.8
09:10 1017 30.03 846 24.98 18 64.3 50 7.4 45.4
09:15 1017 30.03 846 24.98 17.6 63.7 50 7.2 44.9
09:20 1017 30.03 846 24.98 17.8 64 49 7 44.5
09:25 1017 30.03 846 24.98 18.3 64.9 47 7.1 44.7
09:30 1017 30.03 846 24.98 18.4 65 46 6.6 43.8
09:35 1017 30.03 846 24.98 18.5 65.2 46 6.7 44.1
09:40 1017 30.03 846 24.98 18.6 65.6 40 4.8 40.6
09:45 1017 30.03 846 24.98 18.5 65.3 41 5.3 41.6
09:50 1017 30.03 846 24.98 17.7 63.9 47 6.3 43.3
09:55 1017 30.03 846 24.98 16.6 61.9 45 4.6 40.4
10:00 1017 30.03 846 24.98 16.4 61.5 42 3.4 38.1
10:05 1017 30.03 846 24.98 16.1 61 40 2.7 36.9
10:10 1017 30.03 846 24.98 16 60.8 40 2.6 36.7
10:15 1016 30 846 24.98 16.2 61.1 40 2.7 36.9
10:20 1016 30 846 24.98 16.4 61.5 35 1.1 34
10:25 1016 30 846 24.98 16.3 61.3 38 2.2 36
10:30 1016 30 846 24.98 16.4 61.6 38 2.1 35.7
10:35 1016 30 846 24.98 16.7 62.1 36 1.8 35.3
10:40 1016 30 846 24.98 17.2 62.9 34 1.4 34.6
10:45 1016 30 846 24.98 17.1 62.7 35 1.5 34.7
10:50 1016 30 846 24.98 17.1 62.8 35 1.8 35.2
10:55 1017 30.03 846 24.98 17.9 64.3 33 1.5 34.7
11:00 1017 30.03 846 24.98 18.6 65.5 32 1.7 35.1
11:05 1017 30.03 846 24.98 18.2 64.8 33 1.7 35.1
11:10 1016 30 846 24.98 17.8 64 34 1.9 35.4
11:15 1016 30 846 24.98 18.1 64.5 35 2.7 36.8
11:20 1016 30 846 24.98 18.9 66 33 2.3 36.1
11:25 1016 30 846 24.98 19.1 66.3 31 1.5 34.7
11:30 1016 30 845 24.95 19.3 66.8 31 1.8 35.3
11:35 1016 30 845 24.95 19.4 66.9 30 1.4 34.5
11:40 1016 30 845 24.95 19.9 67.7 28 0.9 33.7
11:45 1016 30 845 24.95 19.5 67.2 28 0.7 33.3
11:50 1016 30 845 24.95 19.1 66.3 31 1.5 34.8
11:55 1016 30 845 24.95 19.5 67.2 29 1.1 33.9
12:00 1016 30 845 24.95 20.1 68.1 27 0.7 33.2
12:05 1016 30 845 24.95 20 68 29 1.5 34.7
12:10 1016 30 845 24.95 20.5 68.9 27 1.3 34.3
12:15 1016 30 845 24.95 21.2 70.1 26 1.3 34.3
12:20 1016 30 845 24.95 21.6 71 25 1.1 34
12:25 1016 30 845 24.95 22.1 71.8 23 -0.1 31.9
12:30 1016 30 845 24.95 21.1 70 24 0.1 32.1
12:35 1016 30 845 24.95 21.2 70.2 26 1.1 33.9
12:40 1016 30 845 24.95 21.5 70.8 25 0.6 33.1
12:45 1016 30 845 24.95 21.4 70.5 26 1.2 34.1
12:50 1016 30 845 24.95 21.6 70.8 25 0.9 33.6
12:55 1016 30 845 24.95 22.5 72.4 23 0.6 33.1
13:00 1015 29.97 845 24.95 22.5 72.5 24 1.1 34
13:05 1015 29.97 845 24.95 21.8 71.3 25 1 33.8
13:10 1015 29.97 845 24.95 21.5 70.7 26 1.2 34.2
13:15 1015 29.97 844 24.92 21.2 70.2 26 0.9 33.7
13:20 1015 29.97 844 24.92 21.2 70.2 23 -0.5 31.2
13:25 1015 29.97 844 24.92 21.1 70.1 25 0.4 32.7
13:30 1015 29.97 844 24.92 20.9 69.7 25 0.4 32.8
13:35 1015 29.97 844 24.92 20.4 68.8 27 0.8 33.5
13:40 1015 29.97 844 24.92 18.8 65.8 34 2.6 36.7
13:45 1015 29.97 844 24.92 18.1 64.6 38 3.8 38.9
13:50 1015 29.97 844 24.92 18.6 65.4 32 1.8 35.2
13:55 1015 29.97 844 24.92 19.3 66.7 29 0.8 33.5
14:00 1015 29.97 844 24.92 19.4 67 30 1.6 34.9
14:05 1015 29.97 844 24.92 19.3 66.8 31 1.8 35.3
14:10 1015 29.97 844 24.92 19.6 67.2 29 1.2 34.1
14:15 1015 29.97 844 24.92 19.6 67.3 31 1.9 35.5
14:20 1015 29.97 844 24.92 19.8 67.6 29 1.3 34.4
14:25 1015 29.97 844 24.92 20.2 68.4 28 1.4 34.5
14:30 1015 29.97 844 24.92 20.6 69.1 26 0.6 33.1
14:35 1015 29.97 844 24.92 21 69.8 25 0.7 33.2
14:40 1015 29.97 844 24.92 21.7 71.1 24 0.6 33.1
14:45 1015 29.97 844 24.92 20.5 69 26 0.6 33.1
14:50 1015 29.97 844 24.92 21.4 70.6 24 0.2 32.4
14:55 1015 29.97 844 24.92 21.8 71.2 26 1.6 34.9
15:00 1015 29.97 844 24.92 21.4 70.4 25 0.5 32.9
15:05 1015 29.97 844 24.92 20.6 69.1 24 -0.3 31.5
15:10 1015 29.97 844 24.92 20.2 68.4 26 0.3 32.6
15:15 1015 29.97 844 24.92 20.2 68.4 32 3.3 38
15:20 1015 29.97 844 24.92 19.3 66.7 32 2.4 36.4
15:25 1015 29.97 844 24.92 19.5 67 29 1 33.9
15:30 1015 29.97 844 24.92 19.6 67.2 28 0.5 33
15:35 1015 29.97 844 24.92 19.5 67 27 0.2 32.3
15:40 1015 29.97 844 24.92 19.6 67.2 28 0.7 33.3
15:45 1015 29.97 844 24.92 19 66.1 29 0.5 32.9
15:50 1015 29.97 844 24.92 19.1 66.3 28 0.5 32.8
15:55 1015 29.97 844 24.92 19.3 66.7 29 0.9 33.6
16:00 1015 29.97 844 24.92 19.5 67 28 0.5 32.8
16:05 1015 29.97 844 24.92 19.7 67.4 28 0.6 33
16:10 1015 29.97 844 24.92 19.5 67.2 28 0.6 33
16:15 1015 29.97 844 24.92 19.5 67.2 28 0.9 33.6
16:20 1015 29.97 845 24.95 19.2 66.6 35 3.5 38.3
16:25 1016 30 845 24.95 17.5 63.5 46 6 42.8
16:30 1016 30 845 24.95 16.1 60.9 49 5.4 41.8
16:35 1016 30 845 24.95 15.8 60.5 50 5.5 41.9
16:40 1016 30 845 24.95 15.9 60.7 48 5 41
16:45 1016 30 845 24.95 15.9 60.6 51 5.8 42.5
16:50 1016 30 845 24.95 15.7 60.2 51 5.6 42.1
16:55 1016 30 845 24.95 14.9 58.9 52 5.1 41.3
17:00 1016 30 845 24.95 15 59 53 5.6 42.1
17:05 1016 30 845 24.95 14.8 58.6 54 5.7 42.3
17:10 1016 30 846 24.98 15 59 55 6.2 43.2
17:15 1017 30.03 846 24.98 15.2 59.3 54 6 42.8
17:20 1017 30.03 846 24.98 15.1 59.1 55 6.1 42.9
17:25 1017 30.03 846 24.98 14.8 58.6 57 6.5 43.6
17:30 1017 30.03 847 25.01 14.3 57.7 65 7.8 46
17:35 1017 30.03 847 25.01 13.5 56.2 69 7.9 46.3
17:40 1017 30.03 846 24.98 12.8 55.1 72 7.9 46.2
17:45 1017 30.03 846 24.98 12.6 54.6 75 8.3 47
17:50 1017 30.03 846 24.98 12.6 54.6 74 8.1 46.7
17:55 1017 30.03 846 24.98 12.3 54.2 74 7.9 46.1
18:00 1017 30.03 847 25.01 12.3 54.2 73 7.7 45.9
18:05 1017 30.03 847 25.01 12.3 54.2 71 7.3 45.1
18:10 1018 30.06 847 25.01 12.2 53.9 76 8.2 46.8
18:15 1018 30.06 847 25.01 12 53.7 80 8.7 47.7
18:20 1018 30.06 847 25.01 12.1 53.8 79 8.5 47.4
18:25 1017 30.03 847 25.01 11.9 53.4 81 8.8 47.9
18:30 1017 30.03 846 24.98 11.4 52.6 83 8.6 47.5
18:35 1017 30.03 846 24.98 11.4 52.5 78 7.8 46
18:40 1017 30.03 846 24.98 11.5 52.7 78 7.9 46.2
18:45 1017 30.03 847 25.01 11.5 52.7 81 8.4 47.1
18:50 1017 30.03 847 25.01 11.7 53 78 8.1 46.5
18:55 1017 30.03 847 25.01 11.9 53.4 78 8.2 46.7
19:00 1018 30.06 847 25.01 12.1 53.7 76 8.1 46.5
19:05 1018 30.06 847 25.01 12.2 53.9 73 7.6 45.6
19:10 1018 30.06 847 25.01 12.1 53.7 75 7.7 45.9
19:15 1018 30.06 847 25.01 11.8 53.2 76 7.8 46
19:20 1018 30.06 847 25.01 11.5 52.7 79 8 46.4
19:25 1018 30.06 847 25.01 11.3 52.3 77 7.5 45.4
19:30 1018 30.06 847 25.01 11.2 52.1 77 7.4 45.2
19:35 1018 30.06 847 25.01 11.3 52.4 74 6.9 44.5
19:40 1018 30.06 847 25.01 11.6 52.9 69 6.1 43
19:45 1018 30.06 847 25.01 11.7 53 70 6.4 43.5
19:50 1018 30.06 847 25.01 11.6 52.9 70 6.4 43.5
19:55 1018 30.06 847 25.01 11.5 52.7 73 6.9 44.3
20:00 1018 30.06 847 25.01 11.4 52.5 76 7.3 45.2
20:05 1018 30.06 847 25.01 11.2 52.1 76 7.1 44.8
20:10 1018 30.06 847 25.01 11.1 52 74 6.8 44.2
20:15 1018 30.06 847 25.01 11.2 52.1 74 6.8 44.2
20:20 1018 30.06 847 25.01 11.2 52.1 72 6.3 43.3
20:25 1018 30.06 847 25.01 11.2 52.2 74 6.8 44.2
20:30 1018 30.06 847 25.01 11.2 52.1 76 7.1 44.7
20:35 1018 30.06 847 25.01 11.2 52.2 74 6.7 44.1
20:40 1018 30.06 847 25.01 11.5 52.8 71 6.5 43.8
20:45 1018 30.06 847 25.01 11.3 52.4 77 7.6 45.6
20:50 1017 30.03 847 25.01 11.1 51.9 77 7.3 45.1
20:55 1018 30.06 847 25.01 11 51.7 78 7.2 45
21:00 1018 30.06 847 25.01 10.9 51.7 79 7.4 45.4
21:05 1018 30.06 847 25.01 10.9 51.5 78 7.2 45
21:10 1018 30.06 847 25.01 11 51.7 76 6.9 44.4
21:15 1018 30.06 847 25.01 10.9 51.6 78 7.2 45
21:20 1018 30.06 847 25.01 10.7 51.3 79 7.2 45
21:25 1018 30.06 847 25.01 10.6 51.1 79 7.1 44.7
21:30 1018 30.06 847 25.01 10.5 51 79 7.2 44.9
21:35 1018 30.06 847 25.01 10.5 50.9 78 6.8 44.2
21:40 1018 30.06 847 25.01 10.5 50.9 78 6.8 44.2
21:45 1018 30.06 847 25.01 10.6 51 77 6.8 44.2
21:50 1018 30.06 847 25.01 10.6 51.1 77 6.7 44.1
21:55 1018 30.06 847 25.01 10.7 51.3 78 7 44.7
22:00 1018 30.06 847 25.01 10.4 50.8 80 7.2 44.9
22:05 1018 30.06 847 25.01 10.4 50.7 78 6.7 44.1
22:10 1018 30.06 847 25.01 10.5 50.9 77 6.6 43.9
22:15 1018 30.06 847 25.01 10.6 51 77 6.7 44.1
22:20 1018 30.06 847 25.01 10.6 51 78 6.9 44.3
22:25 1018 30.06 848 25.04 10.6 51 80 7.3 45.2
22:30 1018 30.06 848 25.04 10.4 50.8 83 7.6 45.7
22:35 1019 30.09 848 25.04 10.3 50.6 83 7.6 45.7
22:40 1019 30.09 848 25.04 10.3 50.6 83 7.6 45.7
22:45 1019 30.09 848 25.04 10.5 50.9 81 7.5 45.4
22:50 1019 30.09 848 25.04 10.6 51.2 80 7.4 45.3
22:55 1019 30.09 848 25.04 10.8 51.4 81 7.7 45.8
23:00 1019 30.09 848 25.04 10.6 51.1 83 7.9 46.3
23:05 1019 30.09 848 25.04 10.3 50.5 84 7.7 45.8
23:10 1019 30.09 848 25.04 10.2 50.3 84 7.6 45.6
23:15 1019 30.09 848 25.04 10.2 50.4 84 7.7 45.9
23:20 1019 30.09 848 25.04 10.1 50.3 84 7.6 45.7
23:25 1019 30.09 848 25.04 10.1 50.2 84 7.6 45.7
23:30 1019 30.09 848 25.04 10.1 50.2 87 8.1 46.5
23:35 1019 30.09 848 25.04 10 50 88 8 46.5
23:40 1019 30.09 848 25.04 9.9 49.9 88 8.1 46.6
23:45 1019 30.09 848 25.04 9.9 49.8 89 8.1 46.6
23:50 1019 30.09 848 25.04 9.8 49.6 88 7.9 46.2
23:55 1019 30.09 848 25.04 9.7 49.5 88 7.9 46.2
24:00 1019 30.09 848 25.04 9.7 49.4 89 7.9 46.3